Time;durP1;ratioP1;P1;durP2;ratioP2;P2;SDS_P1;SDS_P2;PMS_P1;PMS_P2;Temp;Humidity;BMP_temperature;BMP_pressure;BME280_temperature;BME280_humidity;BME280_pressure;Samples;Min_cycle;Max_cycle;Signal;HPM_P1;HPM_P2
2022/01/12 00:02:29;;;;;;;5.75;5.22;;;;;;;6.28;52.34;102063.95;2345774;82;25589;-83
2022/01/12 00:05:52;;;;;;;5.65;4.85;;;;;;;6.27;52.23;102063.02;2339318;83;25620;-82
2022/01/12 00:09:14;;;;;;;4.72;4.28;;;;;;;6.27;52.19;102062.12;2339238;83;25742;-82
2022/01/12 00:12:35;;;;;;;5.87;4.47;;;;;;;6.26;52.09;102058.65;2351977;82;25701;-82
2022/01/12 00:15:57;;;;;;;5.47;4.95;;;;;;;6.27;52.04;102056.95;2342046;83;25709;-81
2022/01/12 00:19:22;;;;;;;5.65;5.15;;;;;;;6.26;51.96;102059.05;2345464;82;25947;-82
2022/01/12 00:22:42;;;;;;;4.92;4.53;;;;;;;6.25;51.88;102059.45;2347482;82;25999;-82
2022/01/12 00:26:07;;;;;;;6.42;4.97;;;;;;;6.25;51.81;102064.63;2346226;82;25574;-81
2022/01/12 00:33:13;;;;;;;5.95;5.45;;;;;;;6.25;51.66;102059.86;2341230;83;25197;-81
2022/01/12 00:36:35;;;;;;;5.53;4.90;;;;;;;6.25;51.59;102066.33;2344413;83;25617;-82
2022/01/12 00:39:58;;;;;;;5.55;4.62;;;;;;;6.24;51.52;102063.22;2346060;83;25636;-81
2022/01/12 00:43:23;;;;;;;5.50;4.85;;;;;;;6.24;51.45;102059.33;2342854;82;25651;-81
2022/01/12 00:46:44;;;;;;;5.00;4.53;;;;;;;6.24;51.37;102063.22;2344045;83;25738;-84
2022/01/12 00:50:07;;;;;;;6.28;5.67;;;;;;;6.23;51.31;102059.73;2355088;83;25612;-83
2022/01/12 00:53:29;;;;;;;4.67;4.28;;;;;;;6.23;51.23;102053.26;2350055;83;26353;-84
2022/01/12 00:56:51;;;;;;;4.97;4.42;;;;;;;6.24;51.17;102058.93;2350614;82;25755;-84
2022/01/12 01:00:18;;;;;;;5.50;5.00;;;;;;;6.24;51.10;102058.03;2344307;83;25567;-82
2022/01/12 01:03:40;;;;;;;6.28;4.83;;;;;;;6.23;51.06;102054.95;2355919;83;25641;-84
2022/01/12 01:07:01;;;;;;;5.40;4.65;;;;;;;6.24;50.99;102057.63;2338522;83;25697;-82
2022/01/12 01:10:45;;;;;;;5.00;4.60;;;;;;;6.24;50.95;102063.22;2356780;82;26458;-82
2022/01/12 01:14:01;;;;;;;6.10;4.80;;;;;;;6.24;50.88;102055.45;2315461;83;26296;-84
2022/01/12 01:28:24;;;;;;;8.38;5.00;;;;;;;6.23;50.64;102056.25;2342461;83;26289;-82
2022/01/12 01:31:46;;;;;;;6.12;5.53;;;;;;;6.23;50.58;102054.95;2351043;82;25680;-83
2022/01/12 01:35:08;;;;;;;4.95;4.45;;;;;;;6.23;50.52;102058.44;2360566;82;25583;-81
2022/01/12 01:38:29;;;;;;;5.83;4.78;;;;;;;6.23;50.49;102057.55;2315907;83;25694;-82
2022/01/12 01:42:00;;;;;;;5.42;4.92;;;;;;;6.22;50.45;102056.66;2341839;83;25870;-82
2022/01/12 01:56:32;;;;;;;8.28;6.12;;;;;;;6.22;50.30;102063.53;2342503;82;25561;-85
2022/01/12 01:59:54;;;;;;;6.67;5.95;;;;;;;6.20;50.24;102051.75;2349690;83;25610;-84
2022/01/12 02:03:18;;;;;;;7.80;6.42;;;;;;;6.21;50.22;102057.83;2313458;83;25792;-84
2022/01/12 02:06:41;;;;;;;7.45;6.10;;;;;;;6.19;50.20;102052.55;2332903;83;26348;-85
2022/01/12 02:10:05;;;;;;;13.35;7.37;;;;;;;6.19;50.17;102052.55;2338323;83;25723;-82
2022/01/12 02:13:37;;;;;;;11.73;6.92;;;;;;;6.20;50.15;102058.62;2344269;82;25754;-85
2022/01/12 02:17:08;;;;;;;7.95;7.15;;;;;;;6.19;50.13;102058.14;2338107;83;25906;-84
2022/01/12 02:42:18;;;;;;;20.48;9.53;;;;;;;6.17;49.92;102038.99;2229642;87;25781;-80
2022/01/12 02:56:40;;;;;;;12.13;8.53;;;;;;;6.15;49.84;102036.31;2184696;90;26289;-82
2022/01/12 03:00:14;;;;;;;12.58;8.38;;;;;;;6.15;49.82;102032.43;2203207;85;26030;-82
2022/01/12 03:03:37;;;;;;;10.85;8.43;;;;;;;6.14;49.80;102028.02;2244567;86;25801;-82
2022/01/12 03:07:05;;;;;;;14.58;9.25;;;;;;;6.14;49.77;102030.61;2302289;84;25693;-81
2022/01/12 03:10:22;;;;;;;14.40;9.75;;;;;;;6.14;49.77;102029.31;2218890;87;25776;-82
2022/01/12 03:13:44;;;;;;;14.00;9.13;;;;;;;6.13;49.74;102034.90;2287865;84;25653;-83
2022/01/12 03:17:07;;;;;;;16.73;10.38;;;;;;;6.12;49.72;102037.00;2295608;84;25787;-84
2022/01/12 03:20:28;;;;;;;17.82;10.72;;;;;;;6.12;49.72;102043.47;2302601;85;25745;-81
2022/01/12 03:23:51;;;;;;;15.50;10.65;;;;;;;6.11;49.71;102046.86;2290651;84;25661;-82
2022/01/12 03:27:14;;;;;;;16.95;11.88;;;;;;;6.10;49.70;102050.22;2291868;85;25870;-81
2022/01/12 03:30:47;;;;;;;13.72;9.18;;;;;;;6.09;49.68;102049.73;2291897;84;25882;-80
2022/01/12 03:37:53;;;;;;;23.22;11.63;;;;;;;6.08;49.68;102057.02;2289682;85;25752;-81
2022/01/12 03:41:05;;;;;;;17.40;11.68;;;;;;;6.07;49.68;102061.66;2301266;84;25650;-81
2022/01/12 03:44:26;;;;;;;20.55;11.83;;;;;;;6.06;49.67;102058.58;2285167;84;25774;-83
2022/01/12 03:47:47;;;;;;;21.10;12.47;;;;;;;6.03;49.68;102055.78;2291862;85;25847;-82
2022/01/12 03:51:09;;;;;;;22.32;13.55;;;;;;;6.04;49.66;102055.02;2298317;84;25914;-82
2022/01/12 03:54:36;;;;;;;21.90;13.55;;;;;;;6.02;49.66;102055.69;2291879;84;25914;-80
2022/01/12 03:57:57;;;;;;;19.73;12.88;;;;;;;6.01;49.66;102040.56;2283033;85;25760;-83
2022/01/12 04:01:19;;;;;;;23.67;14.25;;;;;;;6.00;49.66;102046.50;2286225;84;25688;-81
2022/01/12 04:05:05;;;;;;;22.55;13.20;;;;;;;6.00;49.65;102051.68;2286163;84;26174;-83
2022/01/12 04:08:20;;;;;;;25.62;14.70;;;;;;;6.00;49.65;102046.91;2283908;84;25718;-81
2022/01/12 04:11:42;;;;;;;24.77;14.90;;;;;;;5.99;49.64;102038.65;2293670;84;25662;-83
2022/01/12 04:15:05;;;;;;;21.77;15.00;;;;;;;5.99;49.65;102039.94;2281217;84;25732;-83
2022/01/12 04:18:26;;;;;;;23.40;14.50;;;;;;;5.97;49.65;102033.34;2294396;84;25772;-80
2022/01/12 04:21:49;;;;;;;26.02;14.15;;;;;;;5.98;49.65;102038.16;2290346;84;25668;-81
2022/01/12 04:25:11;;;;;;;23.18;14.75;;;;;;;5.95;49.66;102041.83;2235310;86;25713;-82
2022/01/12 04:28:38;;;;;;;23.92;15.20;;;;;;;5.93;49.67;102043.00;2250402;86;25656;-80
2022/01/12 04:31:59;;;;;;;25.95;14.47;;;;;;;5.90;49.66;102041.05;2257679;85;26431;-80
2022/01/12 04:35:24;;;;;;;27.22;14.47;;;;;;;5.89;49.65;102040.96;2253790;86;25907;-81
2022/01/12 04:38:45;;;;;;;26.68;14.20;;;;;;;5.86;49.65;102045.92;2243975;87;25784;-81
2022/01/12 04:42:07;;;;;;;24.55;15.88;;;;;;;5.85;49.66;102042.84;2292759;84;25680;-85
2022/01/12 04:49:20;;;;;;;23.45;14.33;;;;;;;5.82;49.66;102031.88;2298411;84;25638;-80
2022/01/12 04:52:19;;;;;;;29.30;17.17;;;;;;;5.82;49.66;102039.64;2291514;84;25888;-82
2022/01/12 04:55:42;;;;;;;26.27;15.83;;;;;;;5.82;49.65;102034.87;2287925;84;25640;-81
2022/01/12 04:59:03;;;;;;;21.60;13.90;;;;;;;5.81;49.66;102038.26;2292782;84;25928;-82
2022/01/12 05:12:42;;;;;;;26.80;16.87;;;;;;;5.80;49.65;102029.56;2315233;83;25599;-83
2022/01/12 05:13:10;;;;;;;24.10;15.38;;;;;;;5.80;49.63;102033.45;2290067;84;25747;-83
2022/01/12 05:16:32;;;;;;;29.00;16.42;;;;;;;5.81;49.63;102035.67;2301565;84;25722;-83
2022/01/12 05:19:54;;;;;;;29.98;16.75;;;;;;;5.81;49.63;102039.55;2301844;83;25653;-84
2022/01/12 05:23:15;;;;;;;26.50;15.65;;;;;;;5.80;49.62;102037.33;2294514;84;25730;-81
2022/01/12 05:26:37;;;;;;;27.93;16.57;;;;;;;5.81;49.62;102039.15;2292398;84;25708;-84
2022/01/12 05:29:58;;;;;;;28.75;16.85;;;;;;;5.80;49.61;102033.45;2292570;84;25852;-81
2022/01/12 05:33:22;;;;;;;25.85;16.65;;;;;;;5.79;49.59;102034.25;2293549;84;25678;-83
2022/01/12 05:36:44;;;;;;;25.37;15.70;;;;;;;5.81;49.58;102031.78;2296361;84;25814;-82
2022/01/12 05:40:07;;;;;;;23.22;15.35;;;;;;;5.83;49.58;102034.06;2303778;83;25673;-82
2022/01/12 05:43:35;;;;;;;29.95;18.23;;;;;;;5.83;49.56;102028.88;2290087;84;25333;-85
2022/01/12 05:46:56;;;;;;;28.77;18.12;;;;;;;5.83;49.55;102025.00;2293062;84;25782;-81
2022/01/12 05:50:25;;;;;;;30.23;18.50;;;;;;;5.83;49.54;102022.41;2287937;84;25936;-81
2022/01/12 05:53:46;;;;;;;29.48;17.30;;;;;;;5.83;49.55;102024.60;2292651;84;25735;-82
2022/01/12 05:57:07;;;;;;;30.35;17.87;;;;;;;5.83;49.54;102015.55;2299051;84;25831;-81
2022/01/12 06:00:29;;;;;;;29.35;17.20;;;;;;;5.84;49.52;102022.94;2295500;84;25335;-83
2022/01/12 06:03:51;;;;;;;27.05;16.90;;;;;;;5.85;49.52;102022.14;2289811;84;25369;-81
2022/01/12 06:07:13;;;;;;;30.65;17.23;;;;;;;5.85;49.50;102020.84;2292733;84;25723;-85
2022/01/12 06:10:34;;;;;;;29.52;17.87;;;;;;;5.86;49.48;102035.17;2292228;84;25861;-85
2022/01/12 06:13:57;;;;;;;29.12;17.57;;;;;;;5.86;49.46;102032.58;2303334;84;25728;-83
2022/01/12 06:17:22;;;;;;;30.77;18.85;;;;;;;5.87;49.49;102037.36;2294158;84;25568;-85
2022/01/12 06:20:44;;;;;;;28.65;17.35;;;;;;;5.87;49.48;102039.95;2297158;84;25746;-82
2022/01/12 06:24:10;;;;;;;32.10;20.77;;;;;;;5.87;49.45;102044.75;2289720;84;25751;-82
2022/01/12 06:27:33;;;;;;;29.57;17.75;;;;;;;5.88;49.45;102035.30;2293985;84;25687;-84
2022/01/12 06:34:20;;;;;;;30.50;18.80;;;;;;;5.89;49.42;102038.38;2217463;87;25756;-82
2022/01/12 06:37:41;;;;;;;34.98;20.10;;;;;;;5.89;49.41;102045.73;2212467;87;25899;-81
2022/01/12 06:41:04;;;;;;;31.93;19.12;;;;;;;5.90;49.39;102054.00;2216833;88;25353;-81
2022/01/12 06:44:26;;;;;;;35.80;19.62;;;;;;;5.90;49.37;102046.63;2215542;88;25807;-83
2022/01/12 06:47:51;;;;;;;28.90;18.30;;;;;;;5.91;49.37;102051.04;2211704;87;26168;-84
2022/01/12 06:51:12;;;;;;;36.75;19.57;;;;;;;5.92;49.34;102054.13;2213783;88;25719;-85
2022/01/12 06:54:37;;;;;;;32.23;17.55;;;;;;;5.92;49.32;102051.53;2191252;88;25785;-84
2022/01/12 06:57:59;;;;;;;30.32;18.98;;;;;;;5.93;49.31;102059.83;2213463;89;25731;-87
2022/01/12 07:01:21;;;;;;;28.05;18.95;;;;;;;5.93;49.30;102059.83;2213251;89;26043;-85
2022/01/12 07:04:42;;;;;;;33.38;19.92;;;;;;;5.95;49.26;102063.83;2214141;87;25847;-83
2022/01/12 07:08:04;;;;;;;30.97;19.52;;;;;;;5.95;49.25;102067.31;2212307;88;26609;-82
2022/01/12 07:11:28;;;;;;;32.65;18.75;;;;;;;5.96;49.22;102065.62;2253616;85;26501;-80
2022/01/12 07:14:54;;;;;;;30.97;18.30;;;;;;;5.97;49.20;102069.99;2292561;84;25802;-83
2022/01/12 07:18:24;;;;;;;28.87;18.48;;;;;;;5.98;49.16;102067.53;2286466;84;25794;-82
2022/01/12 07:21:45;;;;;;;26.97;17.90;;;;;;;5.98;49.12;102065.34;2287140;84;25740;-84
2022/01/12 07:25:07;;;;;;;29.37;16.23;;;;;;;5.99;49.09;102074.89;2228215;86;25793;-82
2022/01/12 07:28:29;;;;;;;28.95;17.30;;;;;;;5.99;49.05;102082.26;2291293;84;26499;-85
2022/01/12 07:31:50;;;;;;;33.78;17.98;;;;;;;6.01;49.03;102083.28;2288221;84;25797;-85
2022/01/12 07:35:11;;;;;;;26.50;18.02;;;;;;;6.02;49.00;102085.06;2293875;84;25937;-83
2022/01/12 07:38:33;;;;;;;29.72;17.15;;;;;;;6.04;48.95;102087.74;2284471;84;25781;-83
2022/01/12 07:41:57;;;;;;;31.70;17.23;;;;;;;6.06;48.90;102080.99;2292267;84;25808;-83
2022/01/12 07:45:21;;;;;;;33.80;17.37;;;;;;;6.07;48.88;102083.67;2289233;84;26320;-82
2022/01/12 07:48:42;;;;;;;28.35;16.37;;;;;;;6.11;48.83;102079.23;2289106;84;25645;-83
2022/01/12 07:52:06;;;;;;;26.60;16.45;;;;;;;6.13;48.79;102075.04;2230654;86;26270;-83
2022/01/12 07:55:27;;;;;;;28.40;15.85;;;;;;;6.18;48.75;102083.55;2233169;87;25852;-83
2022/01/12 07:58:48;;;;;;;24.50;16.42;;;;;;;6.23;48.68;102066.61;2289357;84;25799;-83
2022/01/12 08:02:11;;;;;;;26.35;15.35;;;;;;;6.28;48.65;102062.25;2278333;84;25302;-81
2022/01/12 08:05:33;;;;;;;24.95;15.05;;;;;;;6.34;48.61;102071.70;2290280;84;25778;-83
2022/01/12 08:08:54;;;;;;;24.45;15.45;;;;;;;6.42;48.59;102063.59;2296395;84;25847;-81
2022/01/12 08:12:16;;;;;;;24.50;15.83;;;;;;;6.49;48.52;102068.38;2289320;84;25820;-84
2022/01/12 08:15:37;;;;;;;24.65;14.87;;;;;;;6.53;48.47;102069.97;2299329;84;25812;-82
2022/01/12 08:19:01;;;;;;;22.75;14.70;;;;;;;6.56;48.38;102079.66;2293664;84;25730;-83
2022/01/12 08:22:22;;;;;;;20.90;13.93;;;;;;;6.60;48.34;102072.57;2290200;85;25682;-80
2022/01/12 08:25:44;;;;;;;26.00;15.08;;;;;;;6.65;48.28;102062.12;2298302;84;25687;-82
2022/01/12 08:29:05;;;;;;;20.35;13.20;;;;;;;6.66;48.23;102061.33;2291529;84;25690;-83
2022/01/12 08:32:31;;;;;;;23.57;14.78;;;;;;;6.69;48.13;102065.82;2295068;84;25982;-81
2022/01/12 08:35:54;;;;;;;20.50;14.28;;;;;;;6.72;48.13;102062.14;2306104;85;25719;-84
2022/01/12 08:39:15;;;;;;;23.45;14.20;;;;;;;6.74;48.04;102056.23;2287845;84;25635;-83
2022/01/12 08:42:36;;;;;;;17.50;12.68;;;;;;;6.75;48.00;102052.87;2293998;85;25826;-82
2022/01/12 08:45:58;;;;;;;22.67;13.32;;;;;;;6.82;48.00;102051.58;2298206;84;25653;-84
2022/01/12 08:49:20;;;;;;;20.25;13.10;;;;;;;6.92;47.97;102057.86;2298839;84;25594;-82
2022/01/12 08:52:45;;;;;;;24.92;13.50;;;;;;;7.05;47.86;102059.16;2291344;84;25772;-85
2022/01/12 08:56:07;;;;;;;21.52;12.50;;;;;;;7.17;47.71;102071.11;2287503;86;25900;-87
2022/01/12 08:59:32;;;;;;;20.92;12.90;;;;;;;7.22;47.59;102060.61;2255977;87;25936;-86
2022/01/12 09:02:54;;;;;;;18.15;12.00;;;;;;;7.28;47.53;102054.12;2213845;87;25727;-88
2022/01/12 09:10:53;;;;;;;18.80;12.30;;;;;;;7.49;47.36;102067.58;2294489;85;25393;-83
2022/01/12 09:14:15;;;;;;;18.85;11.05;;;;;;;7.72;47.20;102059.00;2287027;84;25899;-83
2022/01/12 09:17:37;;;;;;;16.93;10.58;;;;;;;7.95;47.15;102050.03;2290220;86;25946;-82
2022/01/12 09:20:59;;;;;;;18.40;10.60;;;;;;;8.14;46.97;102046.86;2289004;85;25715;-83
2022/01/12 09:24:21;;;;;;;14.33;10.38;;;;;;;8.29;46.74;102046.05;2295171;86;25617;-82
2022/01/12 09:27:42;;;;;;;13.30;9.80;;;;;;;8.40;46.70;102040.63;2291604;86;26253;-82
2022/01/12 09:31:03;;;;;;;13.40;10.20;;;;;;;8.47;46.48;102038.50;2287447;86;26068;-82
2022/01/12 09:34:25;;;;;;;15.70;10.45;;;;;;;8.54;46.47;102036.23;2296528;85;25747;-84
2022/01/12 09:37:46;;;;;;;15.60;10.58;;;;;;;8.61;46.39;102034.52;2294219;85;25718;-82
2022/01/12 09:41:07;;;;;;;10.38;7.05;;;;;;;8.65;46.33;102032.16;2297259;84;25733;-78
2022/01/12 09:44:36;;;;;;;12.28;8.38;;;;;;;9.22;51.58;102018.47;2299686;85;25734;-81
2022/01/12 09:47:59;;;;;;;10.70;7.78;;;;;;;10.14;51.72;102024.25;2298904;85;25645;-78
2022/01/12 09:51:22;;;;;;;9.38;6.00;;;;;;;10.94;51.53;102023.06;2293265;84;25770;-79
2022/01/12 09:54:45;;;;;;;9.10;6.40;;;;;;;11.54;50.83;102028.09;2298954;85;25665;-81
2022/01/12 09:58:06;;;;;;;12.40;6.65;;;;;;;12.05;50.40;102036.92;2298815;85;25910;-79
2022/01/12 10:01:34;;;;;;;11.73;7.17;;;;;;;12.12;49.77;102041.59;2296085;85;25627;-79
2022/01/12 10:05:06;;;;;;;8.45;6.83;;;;;;;11.88;49.48;102046.63;2291461;85;26304;-80
2022/01/12 10:08:33;;;;;;;8.45;7.03;;;;;;;11.67;49.33;102040.37;2298771;85;25559;-79
2022/01/12 10:12:01;;;;;;;8.30;7.40;;;;;;;11.49;49.13;102033.49;2298329;84;25661;-85
2022/01/12 10:15:27;;;;;;;15.70;8.23;;;;;;;11.28;47.64;102026.86;2300604;85;25758;-85
2022/01/12 10:19:01;;;;;;;10.00;7.67;;;;;;;10.94;46.86;102020.87;2299464;85;25674;-85
2022/01/12 10:22:23;;;;;;;9.05;7.03;;;;;;;10.67;46.24;102017.39;2299213;84;25614;-84
2022/01/12 10:25:47;;;;;;;10.45;8.13;;;;;;;10.42;45.61;102008.74;2300849;84;25813;-84
2022/01/12 10:29:22;;;;;;;10.60;8.73;;;;;;;10.22;45.17;101989.45;2298555;84;25716;-85
2022/01/12 10:32:44;;;;;;;11.35;8.93;;;;;;;10.04;44.68;102003.75;2292369;84;25762;-85
2022/01/12 10:36:06;;;;;;;12.63;9.55;;;;;;;9.88;44.20;102013.77;2299956;84;25810;-84
2022/01/12 10:39:29;;;;;;;11.80;9.05;;;;;;;9.73;43.83;102007.77;2273033;84;25748;-84
2022/01/12 10:42:52;;;;;;;15.60;10.03;;;;;;;9.64;43.54;102016.39;2295235;84;25751;-84
2022/01/12 10:46:19;;;;;;;12.18;9.25;;;;;;;9.56;43.22;101999.06;2295644;84;25299;-84
2022/01/12 10:49:47;;;;;;;12.33;9.75;;;;;;;9.52;42.95;102000.09;2251621;85;26384;-83
2022/01/12 10:53:08;;;;;;;15.25;10.72;;;;;;;9.44;42.59;102008.80;2232246;86;25992;-84
2022/01/12 10:56:36;;;;;;;12.70;10.00;;;;;;;9.37;42.35;102011.48;2229553;85;25798;-85
2022/01/12 11:05:01;;;;;;;;;;;;;;;9.32;41.91;102009.05;2215633;87;25816;-85
2022/01/12 11:08:30;;;;;;;19.12;11.20;;;;;;;9.34;41.56;102004.80;2161363;89;25773;-84
2022/01/12 11:11:54;;;;;;;17.75;11.75;;;;;;;9.37;41.49;102004.97;2225769;87;25934;-85
2022/01/12 11:15:19;;;;;;;16.27;11.57;;;;;;;9.55;41.40;102008.08;2221242;88;26072;-87
2022/01/12 11:18:41;;;;;;;21.97;13.83;;;;;;;9.69;41.06;102017.55;2230346;87;25321;-82
2022/01/12 11:22:27;;;;;;;24.60;15.13;;;;;;;9.78;40.84;102007.59;2184677;87;25863;-86
2022/01/12 11:25:52;;;;;;;18.90;13.05;;;;;;;9.92;40.72;102002.72;2179894;88;26013;-86
2022/01/12 11:29:16;;;;;;;19.90;13.10;;;;;;;10.03;40.43;101994.56;2242006;86;26169;-83
2022/01/12 11:32:37;;;;;;;21.90;14.38;;;;;;;9.99;40.22;101984.77;2275475;85;25788;-85
2022/01/12 11:36:06;;;;;;;23.50;15.35;;;;;;;9.89;40.15;101983.02;2237080;87;26220;-89
2022/01/12 11:39:32;;;;;;;25.52;15.13;;;;;;;9.82;40.05;101983.90;2238396;86;25870;-84
2022/01/12 11:42:54;;;;;;;23.73;15.28;;;;;;;9.69;39.92;101976.77;2249412;87;26366;-83
2022/01/12 11:46:20;;;;;;;21.90;7.75;;;;;;;9.59;39.88;101978.40;2243758;87;26392;-84
2022/01/12 11:49:46;;;;;;;14.93;9.93;;;;;;;9.86;44.27;101981.55;2244514;87;25954;-82
2022/01/12 11:53:14;;;;;;;19.15;10.93;;;;;;;10.26;43.18;101990.53;2242277;87;25829;-82
2022/01/12 11:56:37;;;;;;;14.13;10.90;;;;;;;10.20;42.62;101969.36;2243596;87;25807;-82
2022/01/12 12:00:09;;;;;;;20.23;12.93;;;;;;;10.08;42.34;101965.71;2242571;87;26579;-83
2022/01/12 12:03:34;;;;;;;19.32;12.93;;;;;;;9.98;42.02;101964.34;2246918;87;25379;-85
2022/01/12 12:07:11;;;;;;;20.92;14.03;;;;;;;9.85;41.73;101961.51;2221002;87;25852;-81
2022/01/12 12:10:37;;;;;;;26.12;15.45;;;;;;;9.75;41.48;101954.45;2271275;85;25795;-83
2022/01/12 12:14:09;;;;;;;22.07;13.28;;;;;;;9.64;41.78;101948.27;2271483;85;25752;-82
2022/01/12 12:17:33;;;;;;;18.92;13.25;;;;;;;9.62;41.71;101959.03;2237119;87;26076;-82
2022/01/12 12:20:55;;;;;;;29.90;17.27;;;;;;;9.53;41.50;101948.53;2238904;87;25808;-81
2022/01/12 12:24:16;;;;;;;25.72;16.37;;;;;;;9.43;41.32;101951.94;2247040;87;25847;-85
2022/01/12 12:27:47;;;;;;;25.10;16.20;;;;;;;9.32;41.20;101942.67;2242959;87;25736;-81
2022/01/12 12:31:08;;;;;;;23.73;15.68;;;;;;;9.25;41.07;101940.94;2253153;87;25860;-80
2022/01/12 12:34:34;;;;;;;25.88;14.47;;;;;;;9.21;40.95;101946.39;2244348;87;25819;-78
2022/01/12 12:38:02;;;;;;;23.35;10.58;;;;;;;9.15;41.40;101934.38;2305544;84;26492;-80
2022/01/12 12:41:23;;;;;;;28.55;14.85;;;;;;;9.80;46.08;101936.06;2314470;84;25697;-82
2022/01/12 12:44:47;;;;;;;23.75;15.78;;;;;;;9.91;42.57;101935.77;2303449;84;25600;-80
2022/01/12 12:48:11;;;;;;;22.45;14.90;;;;;;;9.60;41.47;101929.40;2315677;84;25727;-84
2022/01/12 12:51:33;;;;;;;22.35;15.63;;;;;;;9.32;40.91;101945.69;2323751;84;25756;-81
2022/01/12 12:54:57;;;;;;;26.52;15.70;;;;;;;9.06;40.49;101943.86;2292598;84;26387;-83
2022/01/12 12:58:19;;;;;;;29.15;16.37;;;;;;;8.83;40.21;101937.38;2255672;85;26423;-80
2022/01/12 13:01:40;;;;;;;30.75;18.42;;;;;;;8.61;40.04;101934.42;2275155;85;25895;-81
2022/01/12 13:05:06;;;;;;;30.27;17.32;;;;;;;8.41;39.92;101930.28;2285838;85;25860;-82
2022/01/12 13:08:31;;;;;;;27.35;17.70;;;;;;;8.28;39.84;101938.14;2264245;85;25748;-83
2022/01/12 13:11:52;;;;;;;29.20;18.80;;;;;;;8.11;39.79;101921.98;2279082;85;25823;-81
2022/01/12 13:15:24;;;;;;;28.17;17.23;;;;;;;7.99;39.77;101923.44;2275672;85;26351;-85
2022/01/12 13:18:48;;;;;;;32.20;17.92;;;;;;;7.89;39.73;101912.91;2179894;89;26031;-83
2022/01/12 13:22:09;;;;;;;35.63;19.55;;;;;;;7.77;39.79;101912.21;2185697;88;25814;-87
2022/01/12 13:25:31;;;;;;;35.78;20.35;;;;;;;7.68;39.77;101918.14;2177991;89;25927;-83
2022/01/12 13:28:53;;;;;;;34.10;19.02;;;;;;;7.57;39.77;101931.37;2196722;88;25955;-78
2022/01/12 13:32:15;;;;;;;25.95;16.62;;;;;;;7.44;39.74;101922.35;2193029;89;25758;-79
2022/01/12 13:35:37;;;;;;;39.25;19.37;;;;;;;7.49;40.43;101913.53;2191912;89;25845;-80
2022/01/12 13:39:11;;;;;;;31.42;18.37;;;;;;;7.44;40.04;101908.08;2194449;88;25812;-84
2022/01/12 13:42:55;;;;;;;30.70;18.65;;;;;;;7.29;39.98;101898.97;2187478;88;25893;-81
2022/01/12 13:46:18;;;;;;;31.97;17.67;;;;;;;7.16;39.94;101903.31;2187779;88;25841;-83
2022/01/12 13:49:40;;;;;;;28.65;18.57;;;;;;;7.02;40.00;101891.69;2186605;88;25927;-80
2022/01/12 13:53:01;;;;;;;28.73;18.07;;;;;;;6.94;40.04;101884.22;2195473;88;26659;-86
2022/01/12 13:56:26;;;;;;;30.88;17.35;;;;;;;6.85;40.10;101893.23;2243734;86;25712;-85
2022/01/12 13:59:53;;;;;;;32.73;18.82;;;;;;;6.77;40.17;101883.16;2256900;86;25848;-87
2022/01/12 14:03:19;;;;;;;38.92;21.05;;;;;;;6.70;40.24;101876.70;2261245;86;25619;-81
2022/01/12 14:06:47;;;;;;;40.17;20.10;;;;;;;6.62;40.31;101872.34;2264812;86;25848;-80
2022/01/12 14:10:11;;;;;;;37.78;21.48;;;;;;;6.55;40.36;101870.56;2251771;85;25719;-84
2022/01/12 14:13:39;;;;;;;40.28;20.75;;;;;;;6.46;40.43;101867.37;2265965;86;26793;-81
2022/01/12 14:16:57;;;;;;;39.78;20.57;;;;;;;6.37;40.51;101873.73;2237919;87;25720;-81
2022/01/12 14:20:30;;;;;;;41.42;21.93;;;;;;;6.30;40.58;101876.73;2232452;87;25775;-80
2022/01/12 14:23:55;;;;;;;34.33;21.73;;;;;;;6.21;40.60;101879.12;2241723;87;25635;-80
2022/01/12 14:27:15;;;;;;;32.23;19.02;;;;;;;6.10;40.72;101875.44;2233953;86;25740;-83
2022/01/12 14:30:38;;;;;;;30.82;19.60;;;;;;;6.00;40.79;101870.86;2262987;85;25828;-80
2022/01/12 14:34:00;;;;;;;36.95;17.57;;;;;;;5.92;40.95;101878.09;2302726;83;25633;-83
2022/01/12 14:39:50;;;;;;;56.57;21.10;;;;;;;7.15;52.00;101885.53;2536779;77;26194;-82
2022/01/12 14:43:12;;;;;;;38.95;20.37;;;;;;;8.04;51.71;101886.55;2469708;78;25563;-82
2022/01/12 14:46:34;;;;;;;36.77;19.95;;;;;;;8.11;47.44;101881.31;2489049;78;25765;-82
2022/01/12 14:49:55;;;;;;;37.88;20.12;;;;;;;7.82;46.57;101884.80;2505220;78;26245;-82
2022/01/12 14:53:21;;;;;;;36.88;20.72;;;;;;;7.60;46.26;101896.93;2495693;78;25586;-83
2022/01/12 14:56:40;;;;;;;33.08;18.85;;;;;;;7.41;45.95;101891.02;2493340;78;25586;-81
2022/01/12 15:00:05;;;;;;;35.55;20.02;;;;;;;7.20;45.61;101884.54;2476778;78;25835;-83
2022/01/12 15:03:27;;;;;;;37.90;20.37;;;;;;;7.03;45.42;101880.50;2461860;78;25607;-74
2022/01/12 15:06:48;;;;;;;51.37;23.85;;;;;;;6.89;46.00;101878.76;2457362;78;25776;-79
2022/01/12 15:10:10;;;;;;;38.08;21.48;;;;;;;7.31;51.97;101879.59;2456434;78;25609;-79
2022/01/12 15:13:53;;;;;;;41.48;22.37;;;;;;;7.36;48.58;101873.00;2459268;78;25374;-80
2022/01/12 15:17:04;;;;;;;41.68;21.23;;;;;;;7.20;47.62;101869.88;2438870;79;25624;-84
2022/01/12 15:20:28;;;;;;;40.20;24.27;;;;;;;7.04;47.86;101876.20;2440365;80;26085;-83
2022/01/12 15:23:48;;;;;;;37.25;21.35;;;;;;;7.01;48.10;101870.42;2434244;79;25662;-83
2022/01/12 15:27:09;;;;;;;38.53;21.30;;;;;;;7.00;48.32;101862.16;2457803;80;25638;-84
2022/01/12 15:30:31;;;;;;;37.55;21.93;;;;;;;6.97;48.34;101863.27;2443029;80;25714;-83
2022/01/12 15:33:52;;;;;;;43.63;21.97;;;;;;;6.94;48.41;101860.88;2439222;80;25671;-84
2022/01/12 15:37:13;;;;;;;41.00;23.15;;;;;;;6.91;48.28;101854.21;2405363;80;25720;-84
2022/01/12 15:40:38;;;;;;;46.20;23.65;;;;;;;6.86;48.33;101862.61;2445750;80;25906;-84
2022/01/12 15:44:02;;;;;;;38.20;20.88;;;;;;;6.83;48.29;101865.41;2446217;79;25619;-84
2022/01/12 15:47:25;;;;;;;44.03;23.05;;;;;;;6.79;48.34;101858.25;2445970;80;25612;-83
2022/01/12 15:50:46;;;;;;;38.15;21.93;;;;;;;6.73;48.28;101851.38;2455554;80;25669;-83
2022/01/12 15:54:08;;;;;;;37.90;22.05;;;;;;;6.70;48.22;101849.89;2443418;78;25738;-85
2022/01/12 15:57:29;;;;;;;38.75;23.00;;;;;;;6.66;48.15;101845.32;2448415;80;25833;-85
2022/01/12 16:00:50;;;;;;;45.78;24.70;;;;;;;6.61;48.12;101847.23;2456268;80;26363;-86
2022/01/12 16:04:12;;;;;;;41.33;24.18;;;;;;;6.57;48.08;101841.33;2449480;78;25789;-84
2022/01/12 16:07:34;;;;;;;40.05;23.60;;;;;;;6.56;48.04;101843.44;2446869;79;25956;-84
2022/01/12 16:10:57;;;;;;;44.63;25.48;;;;;;;6.53;48.00;101838.06;2455535;80;26410;-84
2022/01/12 16:14:18;;;;;;;41.80;23.30;;;;;;;6.51;48.00;101833.16;2449004;79;25659;-83
2022/01/12 16:17:47;;;;;;;48.15;24.72;;;;;;;6.50;47.86;101830.49;2449852;80;25581;-84
2022/01/12 16:21:06;;;;;;;47.80;26.73;;;;;;;6.47;47.92;101819.53;2446688;80;25790;-83
2022/01/12 16:24:27;;;;;;;44.33;25.40;;;;;;;6.46;47.81;101827.22;2425841;79;25659;-83
2022/01/12 16:27:52;;;;;;;46.28;26.50;;;;;;;6.42;47.67;101819.66;2426150;81;25712;-83
2022/01/12 16:31:24;;;;;;;45.23;26.77;;;;;;;6.39;47.60;101820.34;2425057;79;25618;-82
2022/01/12 16:34:46;;;;;;;55.05;28.83;;;;;;;6.36;47.48;101816.27;2441018;80;25675;-83
2022/01/12 16:38:11;;;;;;;51.75;28.00;;;;;;;6.34;47.36;101816.55;2444292;80;25805;-82
2022/01/12 16:41:33;;;;;;;50.88;26.40;;;;;;;6.33;47.29;101832.02;2439014;80;25619;-83
2022/01/12 16:44:54;;;;;;;48.42;27.80;;;;;;;6.31;47.21;101826.75;2434431;80;25676;-83
2022/01/12 16:48:18;;;;;;;57.90;29.37;;;;;;;6.30;47.15;101822.75;2432198;80;25813;-85
2022/01/12 16:51:40;;;;;;;56.55;29.05;;;;;;;6.29;47.09;101822.27;2438904;80;25661;-85
2022/01/12 16:55:01;;;;;;;58.15;29.10;;;;;;;6.28;47.00;101820.08;2436799;79;25766;-83
2022/01/12 16:58:23;;;;;;;59.25;31.20;;;;;;;6.25;46.95;101815.10;2441471;80;25703;-87
2022/01/12 17:01:44;;;;;;;57.93;31.23;;;;;;;6.22;46.81;101801.55;2447643;80;26223;-83
2022/01/12 17:05:06;;;;;;;59.58;31.12;;;;;;;6.17;47.54;101800.75;2417219;80;25656;-84
2022/01/12 17:08:28;;;;;;;58.38;33.05;;;;;;;6.22;47.23;101804.55;2423546;81;25809;-84